sensor_id;sensor_type;location;lat;lon;timestamp;pressure;altitude;pressure_sealevel;temperature;humidity
53889;BME280;41337;51.400;-2.342;2022-08-19T00:00:20;100579.88;;;18.85;100.00
53889;BME280;41337;51.400;-2.342;2022-08-19T00:05:27;100582.69;;;18.79;100.00
53889;BME280;41337;51.400;-2.342;2022-08-19T00:10:28;100564.34;;;18.76;100.00
53889;BME280;41337;51.400;-2.342;2022-08-19T00:15:29;100566.88;;;18.79;100.00
53889;BME280;41337;51.400;-2.342;2022-08-19T00:20:30;100576.56;;;18.79;100.00
53889;BME280;41337;51.400;-2.342;2022-08-19T00:25:30;100572.03;;;18.82;100.00
53889;BME280;41337;51.400;-2.342;2022-08-19T00:30:31;100583.25;;;18.89;100.00
53889;BME280;41337;51.400;-2.342;2022-08-19T00:35:32;100584.25;;;18.86;100.00
53889;BME280;41337;51.400;-2.342;2022-08-19T00:40:34;100595.00;;;18.80;100.00
53889;BME280;41337;51.400;-2.342;2022-08-19T00:45:39;100604.81;;;18.77;100.00
53889;BME280;41337;51.400;-2.342;2022-08-19T00:50:43;100604.66;;;18.55;100.00
53889;BME280;41337;51.400;-2.342;2022-08-19T00:55:53;100590.97;;;18.43;100.00
53889;BME280;41337;51.400;-2.342;2022-08-19T01:00:58;100580.31;;;18.46;100.00
53889;BME280;41337;51.400;-2.342;2022-08-19T01:05:59;100585.81;;;18.40;100.00
53889;BME280;41337;51.400;-2.342;2022-08-19T01:11:01;100585.09;;;18.35;100.00
53889;BME280;41337;51.400;-2.342;2022-08-19T01:16:04;100589.44;;;18.38;100.00
53889;BME280;41337;51.400;-2.342;2022-08-19T01:26:43;100595.66;;;18.35;100.00
53889;BME280;41337;51.400;-2.342;2022-08-19T01:31:46;100589.88;;;18.24;100.00
53889;BME280;41337;51.400;-2.342;2022-08-19T01:36:47;100605.78;;;18.21;100.00
53889;BME280;41337;51.400;-2.342;2022-08-19T01:41:50;100590.38;;;18.08;100.00
53889;BME280;41337;51.400;-2.342;2022-08-19T01:46:51;100603.84;;;17.99;100.00
53889;BME280;41337;51.400;-2.342;2022-08-19T01:51:53;100606.41;;;18.02;100.00
53889;BME280;41337;51.400;-2.342;2022-08-19T01:57:11;100625.75;;;18.01;100.00
53889;BME280;41337;51.400;-2.342;2022-08-19T02:02:16;100595.63;;;17.80;100.00
53889;BME280;41337;51.400;-2.342;2022-08-19T02:07:19;100597.28;;;17.84;100.00
53889;BME280;41337;51.400;-2.342;2022-08-19T02:12:28;100593.88;;;17.80;100.00
53889;BME280;41337;51.400;-2.342;2022-08-19T02:17:29;100600.22;;;17.73;100.00
53889;BME280;41337;51.400;-2.342;2022-08-19T02:22:30;100604.78;;;17.68;100.00
53889;BME280;41337;51.400;-2.342;2022-08-19T02:27:30;100604.97;;;17.62;100.00
53889;BME280;41337;51.400;-2.342;2022-08-19T02:32:31;100596.41;;;17.54;100.00
53889;BME280;41337;51.400;-2.342;2022-08-19T02:37:37;100601.69;;;17.54;100.00
53889;BME280;41337;51.400;-2.342;2022-08-19T02:42:56;100606.97;;;17.54;100.00
53889;BME280;41337;51.400;-2.342;2022-08-19T02:47:57;100605.31;;;17.51;100.00
53889;BME280;41337;51.400;-2.342;2022-08-19T02:52:57;100611.38;;;17.53;100.00
53889;BME280;41337;51.400;-2.342;2022-08-19T02:57:59;100623.69;;;17.53;100.00
53889;BME280;41337;51.400;-2.342;2022-08-19T03:03:00;100620.94;;;17.57;100.00
53889;BME280;41337;51.400;-2.342;2022-08-19T03:08:01;100622.53;;;17.61;100.00
53889;BME280;41337;51.400;-2.342;2022-08-19T03:13:03;100640.38;;;17.52;100.00
53889;BME280;41337;51.400;-2.342;2022-08-19T03:18:09;100638.78;;;17.48;100.00
53889;BME280;41337;51.400;-2.342;2022-08-19T03:23:11;100644.94;;;17.47;100.00
53889;BME280;41337;51.400;-2.342;2022-08-19T03:28:22;100635.47;;;17.41;100.00
53889;BME280;41337;51.400;-2.342;2022-08-19T03:33:29;100641.69;;;17.37;100.00
53889;BME280;41337;51.400;-2.342;2022-08-19T03:38:31;100643.78;;;17.25;100.00
53889;BME280;41337;51.400;-2.342;2022-08-19T03:43:40;100636.94;;;17.20;100.00
53889;BME280;41337;51.400;-2.342;2022-08-19T03:48:42;100660.47;;;17.24;100.00
53889;BME280;41337;51.400;-2.342;2022-08-19T03:53:47;100683.28;;;17.25;100.00
53889;BME280;41337;51.400;-2.342;2022-08-19T03:58:48;100676.41;;;17.20;100.00
53889;BME280;41337;51.400;-2.342;2022-08-19T04:03:49;100687.91;;;17.16;100.00
53889;BME280;41337;51.400;-2.342;2022-08-19T04:08:51;100689.66;;;17.17;100.00
53889;BME280;41337;51.400;-2.342;2022-08-19T04:14:00;100698.44;;;17.16;100.00
53889;BME280;41337;51.400;-2.342;2022-08-19T04:19:09;100721.44;;;17.09;100.00
53889;BME280;41337;51.400;-2.342;2022-08-19T04:24:11;100707.59;;;17.02;100.00
53889;BME280;41337;51.400;-2.342;2022-08-19T04:29:22;100724.56;;;16.91;100.00
53889;BME280;41337;51.400;-2.342;2022-08-19T04:34:29;100718.56;;;16.84;100.00
53889;BME280;41337;51.400;-2.342;2022-08-19T04:39:30;100728.28;;;16.80;100.00
53889;BME280;41337;51.400;-2.342;2022-08-19T04:44:50;100751.13;;;16.78;100.00
53889;BME280;41337;51.400;-2.342;2022-08-19T04:49:51;100736.44;;;16.69;100.00
53889;BME280;41337;51.400;-2.342;2022-08-19T04:54:55;100735.78;;;16.61;100.00
53889;BME280;41337;51.400;-2.342;2022-08-19T04:59:56;100735.09;;;16.53;100.00
53889;BME280;41337;51.400;-2.342;2022-08-19T05:04:58;100735.19;;;16.48;100.00
53889;BME280;41337;51.400;-2.342;2022-08-19T05:10:02;100737.97;;;16.42;100.00
53889;BME280;41337;51.400;-2.342;2022-08-19T05:15:07;100743.34;;;16.36;100.00
53889;BME280;41337;51.400;-2.342;2022-08-19T05:20:09;100747.72;;;16.37;100.00
53889;BME280;41337;51.400;-2.342;2022-08-19T05:25:29;100754.75;;;16.37;100.00
53889;BME280;41337;51.400;-2.342;2022-08-19T05:30:30;100773.28;;;16.30;100.00
53889;BME280;41337;51.400;-2.342;2022-08-19T05:35:31;100776.09;;;16.21;100.00
53889;BME280;41337;51.400;-2.342;2022-08-19T05:40:37;100767.66;;;16.07;100.00
53889;BME280;41337;51.400;-2.342;2022-08-19T05:45:40;100785.91;;;16.13;100.00
53889;BME280;41337;51.400;-2.342;2022-08-19T05:50:42;100797.41;;;16.09;100.00
53889;BME280;41337;51.400;-2.342;2022-08-19T05:55:49;100808.22;;;15.93;100.00
53889;BME280;41337;51.400;-2.342;2022-08-19T06:00:50;100802.25;;;15.85;100.00
53889;BME280;41337;51.400;-2.342;2022-08-19T06:05:56;100797.91;;;15.84;100.00
53889;BME280;41337;51.400;-2.342;2022-08-19T06:11:18;100802.25;;;15.85;100.00
53889;BME280;41337;51.400;-2.342;2022-08-19T06:16:20;100810.19;;;15.82;100.00
53889;BME280;41337;51.400;-2.342;2022-08-19T06:21:24;100828.53;;;15.85;100.00
53889;BME280;41337;51.400;-2.342;2022-08-19T06:26:26;100846.16;;;15.78;100.00
53889;BME280;41337;51.400;-2.342;2022-08-19T06:31:28;100847.78;;;15.87;100.00
53889;BME280;41337;51.400;-2.342;2022-08-19T06:36:33;100853.13;;;15.81;100.00
53889;BME280;41337;51.400;-2.342;2022-08-19T06:41:40;100853.09;;;15.84;100.00
53889;BME280;41337;51.400;-2.342;2022-08-19T06:46:44;100863.44;;;15.92;100.00
53889;BME280;41337;51.400;-2.342;2022-08-19T06:51:47;100877.41;;;15.94;100.00
53889;BME280;41337;51.400;-2.342;2022-08-19T06:56:48;100895.66;;;16.02;100.00
53889;BME280;41337;51.400;-2.342;2022-08-19T07:01:54;100907.03;;;16.04;100.00
53889;BME280;41337;51.400;-2.342;2022-08-19T07:07:04;100921.81;;;16.08;100.00
53889;BME280;41337;51.400;-2.342;2022-08-19T07:12:13;100928.72;;;16.15;100.00
53889;BME280;41337;51.400;-2.342;2022-08-19T07:17:17;100944.41;;;16.18;100.00
53889;BME280;41337;51.400;-2.342;2022-08-19T07:22:19;100938.19;;;16.22;100.00
53889;BME280;41337;51.400;-2.342;2022-08-19T07:27:24;100970.53;;;16.27;100.00
53889;BME280;41337;51.400;-2.342;2022-08-19T07:32:25;101003.78;;;16.30;100.00
53889;BME280;41337;51.400;-2.342;2022-08-19T07:37:35;101002.00;;;16.32;100.00
53889;BME280;41337;51.400;-2.342;2022-08-19T07:42:37;101027.97;;;16.49;100.00
53889;BME280;41337;51.400;-2.342;2022-08-19T07:47:38;101062.78;;;16.63;100.00
53889;BME280;41337;51.400;-2.342;2022-08-19T07:52:43;101045.38;;;16.56;100.00
53889;BME280;41337;51.400;-2.342;2022-08-19T07:57:44;101054.22;;;16.52;100.00
53889;BME280;41337;51.400;-2.342;2022-08-19T08:02:45;101059.38;;;16.57;100.00
53889;BME280;41337;51.400;-2.342;2022-08-19T08:07:46;101048.78;;;16.61;100.00
53889;BME280;41337;51.400;-2.342;2022-08-19T08:13:05;101055.38;;;16.84;100.00
53889;BME280;41337;51.400;-2.342;2022-08-19T08:18:06;101085.19;;;16.86;100.00
53889;BME280;41337;51.400;-2.342;2022-08-19T08:23:08;101102.78;;;16.81;100.00
53889;BME280;41337;51.400;-2.342;2022-08-19T08:28:25;101104.59;;;16.79;100.00
53889;BME280;41337;51.400;-2.342;2022-08-19T08:33:28;101096.75;;;16.76;100.00
53889;BME280;41337;51.400;-2.342;2022-08-19T08:38:36;101104.63;;;16.77;100.00
53889;BME280;41337;51.400;-2.342;2022-08-19T08:43:38;101113.38;;;16.78;100.00
53889;BME280;41337;51.400;-2.342;2022-08-19T08:53:57;101128.03;;;16.93;100.00
53889;BME280;41337;51.400;-2.342;2022-08-19T08:59:26;101144.47;;;17.05;100.00
53889;BME280;41337;51.400;-2.342;2022-08-19T09:04:34;101155.56;;;17.21;100.00
53889;BME280;41337;51.400;-2.342;2022-08-19T09:09:46;101156.06;;;17.39;100.00
53889;BME280;41337;51.400;-2.342;2022-08-19T09:15:15;101164.53;;;17.55;100.00
53889;BME280;41337;51.400;-2.342;2022-08-19T09:20:22;101154.84;;;17.55;100.00
53889;BME280;41337;51.400;-2.342;2022-08-19T09:25:24;101155.00;;;17.49;100.00
53889;BME280;41337;51.400;-2.342;2022-08-19T09:30:30;101152.34;;;17.51;100.00
53889;BME280;41337;51.400;-2.342;2022-08-19T09:35:32;101151.38;;;17.53;100.00
53889;BME280;41337;51.400;-2.342;2022-08-19T09:40:39;101153.75;;;17.67;100.00
53889;BME280;41337;51.400;-2.342;2022-08-19T09:45:40;101171.19;;;17.71;100.00
53889;BME280;41337;51.400;-2.342;2022-08-19T09:50:41;101167.31;;;17.89;100.00
53889;BME280;41337;51.400;-2.342;2022-08-19T09:55:42;101153.03;;;18.00;100.00
53889;BME280;41337;51.400;-2.342;2022-08-19T10:00:43;101159.53;;;18.22;100.00
53889;BME280;41337;51.400;-2.342;2022-08-19T10:05:49;101169.75;;;18.36;100.00
53889;BME280;41337;51.400;-2.342;2022-08-19T10:10:50;101173.09;;;18.79;100.00
53889;BME280;41337;51.400;-2.342;2022-08-19T10:15:53;101176.38;;;19.21;100.00
53889;BME280;41337;51.400;-2.342;2022-08-19T10:21:13;101183.38;;;19.54;100.00
53889;BME280;41337;51.400;-2.342;2022-08-19T10:26:22;101183.59;;;20.61;89.89
53889;BME280;41337;51.400;-2.342;2022-08-19T10:31:32;101191.31;;;20.68;97.27
53889;BME280;41337;51.400;-2.342;2022-08-19T10:36:40;101199.22;;;20.95;83.23
53889;BME280;41337;51.400;-2.342;2022-08-19T10:41:41;101215.31;;;20.89;80.92
53889;BME280;41337;51.400;-2.342;2022-08-19T10:46:49;101215.91;;;20.72;82.05
53889;BME280;41337;51.400;-2.342;2022-08-19T10:51:50;101213.91;;;20.24;91.01
53889;BME280;41337;51.400;-2.342;2022-08-19T10:57:10;101202.09;;;20.06;99.37
53889;BME280;41337;51.400;-2.342;2022-08-19T11:02:11;101197.88;;;20.28;96.71
53889;BME280;41337;51.400;-2.342;2022-08-19T11:07:22;101201.41;;;20.56;92.41
53889;BME280;41337;51.400;-2.342;2022-08-19T11:12:29;101190.06;;;20.52;88.34
53889;BME280;41337;51.400;-2.342;2022-08-19T11:17:29;101193.81;;;20.45;85.14
53889;BME280;41337;51.400;-2.342;2022-08-19T11:22:32;101179.28;;;20.58;93.32
53889;BME280;41337;51.400;-2.342;2022-08-19T11:27:33;101175.84;;;21.06;81.85
53889;BME280;41337;51.400;-2.342;2022-08-19T11:32:43;101176.81;;;21.29;87.03
53889;BME280;41337;51.400;-2.342;2022-08-19T11:37:47;101184.19;;;21.92;69.92
53889;BME280;41337;51.400;-2.342;2022-08-19T11:42:48;101186.38;;;21.80;71.92
53889;BME280;41337;51.400;-2.342;2022-08-19T11:47:58;101188.97;;;21.60;73.64
53889;BME280;41337;51.400;-2.342;2022-08-19T11:52:59;101185.59;;;21.78;71.57
53889;BME280;41337;51.400;-2.342;2022-08-19T11:58:01;101181.97;;;21.81;67.24
53889;BME280;41337;51.400;-2.342;2022-08-19T12:03:02;101172.16;;;21.83;69.99
53889;BME280;41337;51.400;-2.342;2022-08-19T12:08:03;101186.13;;;22.10;67.22
53889;BME280;41337;51.400;-2.342;2022-08-19T12:13:04;101183.59;;;22.51;63.73
53889;BME280;41337;51.400;-2.342;2022-08-19T12:18:09;101188.28;;;23.08;53.81
53889;BME280;41337;51.400;-2.342;2022-08-19T12:23:11;101189.56;;;22.57;56.02
53889;BME280;41337;51.400;-2.342;2022-08-19T12:28:12;101201.88;;;22.37;56.10
53889;BME280;41337;51.400;-2.342;2022-08-19T12:33:14;101191.69;;;22.48;58.06
53889;BME280;41337;51.400;-2.342;2022-08-19T12:38:24;101192.50;;;22.28;60.12
53889;BME280;41337;51.400;-2.342;2022-08-19T12:43:25;101197.22;;;21.98;72.63
53889;BME280;41337;51.400;-2.342;2022-08-19T12:48:31;101192.50;;;22.28;65.28
53889;BME280;41337;51.400;-2.342;2022-08-19T12:53:32;101200.50;;;22.05;62.63
53889;BME280;41337;51.400;-2.342;2022-08-19T12:58:33;101199.09;;;21.49;61.54
53889;BME280;41337;51.400;-2.342;2022-08-19T13:03:35;101202.94;;;21.40;62.30
53889;BME280;41337;51.400;-2.342;2022-08-19T13:08:42;101193.31;;;21.61;59.48
53889;BME280;41337;51.400;-2.342;2022-08-19T13:13:44;101180.38;;;21.99;56.04
53889;BME280;41337;51.400;-2.342;2022-08-19T13:18:46;101190.22;;;22.41;57.27
53889;BME280;41337;51.400;-2.342;2022-08-19T13:23:53;101189.59;;;22.98;54.70
53889;BME280;41337;51.400;-2.342;2022-08-19T13:34:14;101193.03;;;23.00;50.93
53889;BME280;41337;51.400;-2.342;2022-08-19T13:39:20;101184.75;;;22.66;55.35
53889;BME280;41337;51.400;-2.342;2022-08-19T13:44:23;101171.78;;;23.00;50.96
53889;BME280;41337;51.400;-2.342;2022-08-19T13:49:24;101167.59;;;23.35;47.76
53889;BME280;41337;51.400;-2.342;2022-08-19T13:54:25;101173.03;;;23.70;47.43
53889;BME280;41337;51.400;-2.342;2022-08-19T13:59:30;101180.81;;;23.75;45.79
53889;BME280;41337;51.400;-2.342;2022-08-19T14:04:31;101187.31;;;23.88;46.89
53889;BME280;41337;51.400;-2.342;2022-08-19T14:09:32;101198.19;;;24.39;43.90
53889;BME280;41337;51.400;-2.342;2022-08-19T14:14:42;101190.88;;;24.06;44.87
53889;BME280;41337;51.400;-2.342;2022-08-19T14:19:43;101190.38;;;24.17;44.69
53889;BME280;41337;51.400;-2.342;2022-08-19T14:24:44;101181.94;;;24.26;43.99
53889;BME280;41337;51.400;-2.342;2022-08-19T14:29:45;101175.22;;;24.36;43.85
53889;BME280;41337;51.400;-2.342;2022-08-19T14:34:52;101199.91;;;24.77;43.15
53889;BME280;41337;51.400;-2.342;2022-08-19T14:39:53;101184.81;;;24.58;42.92
53889;BME280;41337;51.400;-2.342;2022-08-19T14:44:57;101197.53;;;24.70;41.46
53889;BME280;41337;51.400;-2.342;2022-08-19T14:50:02;101206.72;;;24.09;43.71
53889;BME280;41337;51.400;-2.342;2022-08-19T14:55:04;101199.69;;;24.08;44.93
53889;BME280;41337;51.400;-2.342;2022-08-19T15:00:06;101205.00;;;24.08;43.29
53889;BME280;41337;51.400;-2.342;2022-08-19T15:05:13;101203.69;;;23.98;43.71
53889;BME280;41337;51.400;-2.342;2022-08-19T15:10:15;101213.63;;;24.13;43.69
53889;BME280;41337;51.400;-2.342;2022-08-19T15:15:16;101207.38;;;23.95;43.22
53889;BME280;41337;51.400;-2.342;2022-08-19T15:20:23;101200.25;;;23.96;45.39
53889;BME280;41337;51.400;-2.342;2022-08-19T15:25:24;101203.28;;;23.88;44.09
53889;BME280;41337;51.400;-2.342;2022-08-19T15:30:26;101218.13;;;23.54;46.73
53889;BME280;41337;51.400;-2.342;2022-08-19T15:35:31;101208.59;;;23.88;45.17
53889;BME280;41337;51.400;-2.342;2022-08-19T15:40:32;101216.72;;;24.23;44.44
53889;BME280;41337;51.400;-2.342;2022-08-19T15:45:33;101215.09;;;24.02;45.68
53889;BME280;41337;51.400;-2.342;2022-08-19T15:50:34;101220.16;;;23.49;47.75
53889;BME280;41337;51.400;-2.342;2022-08-19T15:55:41;101210.69;;;24.00;44.91
53889;BME280;41337;51.400;-2.342;2022-08-19T16:00:42;101216.34;;;24.48;44.76
53889;BME280;41337;51.400;-2.342;2022-08-19T16:06:02;101212.50;;;24.00;43.61
53889;BME280;41337;51.400;-2.342;2022-08-19T16:11:22;101222.66;;;23.71;46.34
53889;BME280;41337;51.400;-2.342;2022-08-19T16:16:26;101228.91;;;23.70;46.70
53889;BME280;41337;51.400;-2.342;2022-08-19T16:21:32;101241.25;;;24.11;44.74
53889;BME280;41337;51.400;-2.342;2022-08-19T16:26:33;101238.56;;;23.73;48.18
53889;BME280;41337;51.400;-2.342;2022-08-19T16:31:34;101248.94;;;23.39;55.17
53889;BME280;41337;51.400;-2.342;2022-08-19T16:36:35;101260.41;;;22.99;62.66
53889;BME280;41337;51.400;-2.342;2022-08-19T16:41:37;101254.41;;;22.29;67.08
53889;BME280;41337;51.400;-2.342;2022-08-19T16:46:43;101255.88;;;22.14;65.78
53889;BME280;41337;51.400;-2.342;2022-08-19T16:51:46;101252.19;;;22.16;65.81
53889;BME280;41337;51.400;-2.342;2022-08-19T16:56:47;101250.38;;;22.18;65.06
53889;BME280;41337;51.400;-2.342;2022-08-19T17:01:49;101266.59;;;22.11;64.36
53889;BME280;41337;51.400;-2.342;2022-08-19T17:06:53;101264.28;;;22.25;58.15
53889;BME280;41337;51.400;-2.342;2022-08-19T17:11:54;101256.41;;;22.22;54.49
53889;BME280;41337;51.400;-2.342;2022-08-19T17:16:54;101267.38;;;22.59;51.21
53889;BME280;41337;51.400;-2.342;2022-08-19T17:21:55;101258.34;;;23.05;47.07
53889;BME280;41337;51.400;-2.342;2022-08-19T17:26:57;101262.38;;;23.36;47.01
53889;BME280;41337;51.400;-2.342;2022-08-19T17:31:57;101255.50;;;23.51;47.23
53889;BME280;41337;51.400;-2.342;2022-08-19T17:36:58;101252.28;;;23.63;46.64
53889;BME280;41337;51.400;-2.342;2022-08-19T17:41:59;101250.78;;;23.58;48.46
53889;BME280;41337;51.400;-2.342;2022-08-19T17:47:05;101255.69;;;23.67;47.85
53889;BME280;41337;51.400;-2.342;2022-08-19T17:52:06;101263.50;;;23.70;48.38
53889;BME280;41337;51.400;-2.342;2022-08-19T17:57:06;101271.78;;;23.43;51.66
53889;BME280;41337;51.400;-2.342;2022-08-19T18:02:08;101280.91;;;23.17;58.71
53889;BME280;41337;51.400;-2.342;2022-08-19T18:07:09;101277.75;;;22.87;62.50
53889;BME280;41337;51.400;-2.342;2022-08-19T18:12:11;101274.09;;;22.89;62.77
53889;BME280;41337;51.400;-2.342;2022-08-19T18:17:13;101279.44;;;22.22;71.21
53889;BME280;41337;51.400;-2.342;2022-08-19T18:22:23;101286.00;;;21.89;78.84
53889;BME280;41337;51.400;-2.342;2022-08-19T18:27:25;101283.56;;;21.83;79.98
53889;BME280;41337;51.400;-2.342;2022-08-19T18:32:28;101300.91;;;21.68;82.10
53889;BME280;41337;51.400;-2.342;2022-08-19T18:37:32;101305.03;;;21.52;81.46
53889;BME280;41337;51.400;-2.342;2022-08-19T18:42:40;101304.75;;;21.07;83.83
53889;BME280;41337;51.400;-2.342;2022-08-19T18:48:03;101312.25;;;20.68;89.34
53889;BME280;41337;51.400;-2.342;2022-08-19T18:53:23;101317.47;;;20.40;92.44
53889;BME280;41337;51.400;-2.342;2022-08-19T18:58:25;101327.34;;;20.05;97.34
53889;BME280;41337;51.400;-2.342;2022-08-19T19:03:32;101335.94;;;19.82;99.44
53889;BME280;41337;51.400;-2.342;2022-08-19T19:08:33;101346.81;;;19.69;100.00
53889;BME280;41337;51.400;-2.342;2022-08-19T19:13:36;101355.91;;;19.59;100.00
53889;BME280;41337;51.400;-2.342;2022-08-19T19:18:42;101362.31;;;19.50;100.00
53889;BME280;41337;51.400;-2.342;2022-08-19T19:23:44;101354.25;;;19.20;100.00
53889;BME280;41337;51.400;-2.342;2022-08-19T19:28:45;101356.13;;;19.15;100.00
53889;BME280;41337;51.400;-2.342;2022-08-19T19:33:48;101353.59;;;19.11;100.00
53889;BME280;41337;51.400;-2.342;2022-08-19T19:44:13;101364.47;;;18.98;100.00
53889;BME280;41337;51.400;-2.342;2022-08-19T19:49:14;101365.19;;;19.05;100.00
53889;BME280;41337;51.400;-2.342;2022-08-19T19:54:14;101369.88;;;18.94;100.00
53889;BME280;41337;51.400;-2.342;2022-08-19T19:59:16;101370.09;;;18.81;100.00
53889;BME280;41337;51.400;-2.342;2022-08-19T20:04:17;101368.22;;;18.88;100.00
53889;BME280;41337;51.400;-2.342;2022-08-19T20:09:18;101374.31;;;18.92;100.00
53889;BME280;41337;51.400;-2.342;2022-08-19T20:14:20;101371.34;;;19.05;100.00
53889;BME280;41337;51.400;-2.342;2022-08-19T20:19:25;101375.94;;;18.97;100.00
53889;BME280;41337;51.400;-2.342;2022-08-19T20:24:28;101373.16;;;19.03;100.00
53889;BME280;41337;51.400;-2.342;2022-08-19T20:29:36;101379.06;;;18.76;100.00
53889;BME280;41337;51.400;-2.342;2022-08-19T20:34:38;101380.13;;;18.67;100.00
53889;BME280;41337;51.400;-2.342;2022-08-19T20:39:39;101376.81;;;18.59;100.00
53889;BME280;41337;51.400;-2.342;2022-08-19T20:44:40;101381.47;;;18.46;100.00
53889;BME280;41337;51.400;-2.342;2022-08-19T20:49:41;101383.53;;;18.31;100.00
53889;BME280;41337;51.400;-2.342;2022-08-19T20:54:42;101383.63;;;18.27;100.00
53889;BME280;41337;51.400;-2.342;2022-08-19T20:59:43;101376.97;;;18.07;100.00
53889;BME280;41337;51.400;-2.342;2022-08-19T21:04:48;101386.81;;;17.99;100.00
53889;BME280;41337;51.400;-2.342;2022-08-19T21:09:49;101380.88;;;17.86;100.00
53889;BME280;41337;51.400;-2.342;2022-08-19T21:14:51;101385.44;;;17.76;100.00
53889;BME280;41337;51.400;-2.342;2022-08-19T21:19:52;101394.63;;;17.54;100.00
53889;BME280;41337;51.400;-2.342;2022-08-19T21:24:53;101388.78;;;17.38;100.00
53889;BME280;41337;51.400;-2.342;2022-08-19T21:29:53;101383.69;;;17.25;100.00
53889;BME280;41337;51.400;-2.342;2022-08-19T21:34:54;101384.75;;;17.14;100.00
53889;BME280;41337;51.400;-2.342;2022-08-19T21:39:55;101379.66;;;17.03;100.00
53889;BME280;41337;51.400;-2.342;2022-08-19T21:44:56;101383.09;;;17.06;100.00
53889;BME280;41337;51.400;-2.342;2022-08-19T21:49:57;101376.25;;;16.96;100.00
53889;BME280;41337;51.400;-2.342;2022-08-19T21:54:57;101378.09;;;16.91;100.00
53889;BME280;41337;51.400;-2.342;2022-08-19T21:59:58;101390.38;;;16.91;100.00
53889;BME280;41337;51.400;-2.342;2022-08-19T22:05:03;101388.69;;;16.85;100.00
53889;BME280;41337;51.400;-2.342;2022-08-19T22:10:04;101389.69;;;16.76;100.00
53889;BME280;41337;51.400;-2.342;2022-08-19T22:15:06;101394.13;;;16.73;100.00
53889;BME280;41337;51.400;-2.342;2022-08-19T22:20:09;101393.16;;;16.77;100.00
53889;BME280;41337;51.400;-2.342;2022-08-19T22:25:13;101392.38;;;16.72;100.00
53889;BME280;41337;51.400;-2.342;2022-08-19T22:30:16;101401.06;;;16.77;100.00
53889;BME280;41337;51.400;-2.342;2022-08-19T22:35:19;101402.63;;;16.93;100.00
53889;BME280;41337;51.400;-2.342;2022-08-19T22:40:20;101400.09;;;16.84;100.00
53889;BME280;41337;51.400;-2.342;2022-08-19T22:45:20;101397.47;;;16.87;100.00
53889;BME280;41337;51.400;-2.342;2022-08-19T22:50:22;101390.66;;;16.69;100.00
53889;BME280;41337;51.400;-2.342;2022-08-19T22:55:26;101389.00;;;16.60;100.00
53889;BME280;41337;51.400;-2.342;2022-08-19T23:00:27;101386.59;;;16.46;100.00
53889;BME280;41337;51.400;-2.342;2022-08-19T23:05:28;101386.72;;;16.36;100.00
53889;BME280;41337;51.400;-2.342;2022-08-19T23:10:29;101379.00;;;16.23;100.00
53889;BME280;41337;51.400;-2.342;2022-08-19T23:15:30;101383.47;;;16.13;100.00
53889;BME280;41337;51.400;-2.342;2022-08-19T23:20:34;101376.56;;;16.03;100.00
53889;BME280;41337;51.400;-2.342;2022-08-19T23:25:39;101375.78;;;15.96;100.00
53889;BME280;41337;51.400;-2.342;2022-08-19T23:30:41;101374.91;;;15.98;100.00
53889;BME280;41337;51.400;-2.342;2022-08-19T23:35:43;101373.94;;;16.03;100.00
53889;BME280;41337;51.400;-2.342;2022-08-19T23:40:44;101366.03;;;16.05;100.00
53889;BME280;41337;51.400;-2.342;2022-08-19T23:45:45;101367.81;;;16.04;100.00
53889;BME280;41337;51.400;-2.342;2022-08-19T23:50:46;101361.75;;;15.99;100.00
53889;BME280;41337;51.400;-2.342;2022-08-19T23:55:47;101354.78;;;15.93;100.00
